createdAt,value
2022-12-03T00:00:23.983Z,26.87
2022-12-03T00:02:52.176Z,28.30
2022-12-03T00:05:20.280Z,30.53
2022-12-03T00:07:48.274Z,26.70
2022-12-03T00:10:18.659Z,27.90
2022-12-03T00:12:46.724Z,29.03
2022-12-03T00:15:14.970Z,29.70
2022-12-03T00:17:42.911Z,27.53
2022-12-03T00:20:19.095Z,29.83
2022-12-03T00:22:48.102Z,30.60
2022-12-03T00:25:16.263Z,32.57
2022-12-03T00:27:45.607Z,30.60
2022-12-03T00:30:15.415Z,30.73
2022-12-03T00:32:43.610Z,29.67
2022-12-03T00:35:11.555Z,31.73
2022-12-03T00:37:39.580Z,32.17
2022-12-03T00:40:08.947Z,30.43
2022-12-03T00:42:36.914Z,29.23
2022-12-03T00:45:07.489Z,28.70
2022-12-03T00:47:35.472Z,27.60
2022-12-03T00:50:03.424Z,28.73
2022-12-03T00:52:31.527Z,29.53
2022-12-03T00:54:59.518Z,27.93
2022-12-03T00:57:27.471Z,28.30
2022-12-03T00:59:55.434Z,28.13
2022-12-03T01:02:24.753Z,28.37
2022-12-03T01:04:53.046Z,28.60
2022-12-03T01:07:21.331Z,27.53
2022-12-03T01:09:49.280Z,28.13
2022-12-03T01:12:17.182Z,29.23
2022-12-03T01:14:45.347Z,26.70
2022-12-03T01:17:13.390Z,27.23
2022-12-03T01:19:48.058Z,31.40
2022-12-03T01:22:16.455Z,27.40
2022-12-03T01:24:44.442Z,28.20
2022-12-03T01:27:12.391Z,26.43
2022-12-03T01:29:40.326Z,26.60
2022-12-03T01:32:19.702Z,26.60
2022-12-03T01:34:51.859Z,26.73
2022-12-03T01:37:22.402Z,26.17
2022-12-03T01:39:50.572Z,28.33
2022-12-03T01:42:20.788Z,26.80
2022-12-03T01:44:50.023Z,28.53
2022-12-03T01:47:19.859Z,21.97
2022-12-03T01:49:52.077Z,27.57
2022-12-03T01:52:25.155Z,27.03
2022-12-03T01:54:56.523Z,24.67
2022-12-03T01:57:27.575Z,27.20
2022-12-03T01:59:58.216Z,26.23
2022-12-03T02:02:28.447Z,26.90
2022-12-03T02:04:58.396Z,27.10
2022-12-03T02:07:28.366Z,25.70
2022-12-03T02:09:58.261Z,26.63
2022-12-03T02:12:31.129Z,27.70
2022-12-03T02:14:59.647Z,27.87
2022-12-03T02:17:28.182Z,28.57
2022-12-03T02:19:58.289Z,26.13
2022-12-03T02:22:38.617Z,25.63
2022-12-03T02:25:17.531Z,26.30
2022-12-03T02:27:46.620Z,27.70
2022-12-03T02:30:17.381Z,27.27
2022-12-03T02:32:45.750Z,29.27
2022-12-03T02:35:18.311Z,27.00
2022-12-03T02:37:48.526Z,26.67
2022-12-03T02:40:21.239Z,27.30
2022-12-03T02:42:50.438Z,26.97
2022-12-03T02:45:21.427Z,25.73
2022-12-03T02:47:52.862Z,25.47
2022-12-03T02:50:27.056Z,25.27
2022-12-03T02:52:57.741Z,26.03
2022-12-03T02:55:34.950Z,24.53
2022-12-03T02:58:05.922Z,30.70
2022-12-03T03:00:34.465Z,27.90
2022-12-03T03:03:04.208Z,27.43
2022-12-03T03:05:32.828Z,27.17
2022-12-03T03:08:01.764Z,29.27
2022-12-03T03:10:31.670Z,27.20
2022-12-03T03:13:00.097Z,28.10
2022-12-03T03:15:28.123Z,28.63
2022-12-03T03:17:56.202Z,27.83
2022-12-03T03:20:24.196Z,28.83
2022-12-03T03:22:52.252Z,28.20
2022-12-03T03:25:22.468Z,28.93
2022-12-03T03:27:51.808Z,27.57
2022-12-03T03:30:19.971Z,27.40
2022-12-03T03:32:47.969Z,27.80
2022-12-03T03:35:17.962Z,26.63
2022-12-03T03:37:45.988Z,27.80
2022-12-03T03:40:14.293Z,26.03
2022-12-03T03:42:42.587Z,26.47
2022-12-03T03:45:12.312Z,26.57
2022-12-03T03:47:40.707Z,25.10
2022-12-03T03:50:11.559Z,24.37
2022-12-03T03:52:41.294Z,24.67
2022-12-03T03:55:11.863Z,25.87
2022-12-03T03:57:40.783Z,26.63
2022-12-03T04:00:10.104Z,27.13
2022-12-03T04:02:39.436Z,25.80
2022-12-03T04:05:08.790Z,25.97
2022-12-03T04:07:36.788Z,27.80
2022-12-03T04:10:25.651Z,24.80
2022-12-03T04:12:57.118Z,24.10
2022-12-03T04:15:25.852Z,27.07
2022-12-03T04:18:09.054Z,23.10
2022-12-03T04:20:37.035Z,24.60
2022-12-03T04:23:04.187Z,25.07
2022-12-03T04:25:49.511Z,26.90
2022-12-03T04:28:35.042Z,23.50
2022-12-03T04:31:23.728Z,24.27
2022-12-03T04:34:12.642Z,22.63
2022-12-03T04:36:40.720Z,22.83
2022-12-03T04:39:08.637Z,22.73
2022-12-03T04:41:36.583Z,22.87
2022-12-03T04:44:21.854Z,25.00
2022-12-03T04:46:49.743Z,22.70
2022-12-03T04:49:18.987Z,22.77
2022-12-03T04:51:46.979Z,20.47
2022-12-03T04:54:15.133Z,23.77
2022-12-03T04:56:43.046Z,21.20
2022-12-03T04:59:15.963Z,22.57
2022-12-03T05:01:45.982Z,22.40
2022-12-03T05:04:14.698Z,22.60
2022-12-03T05:06:44.076Z,20.30
2022-12-03T05:09:12.395Z,21.97
2022-12-03T05:11:40.576Z,23.37
2022-12-03T05:14:09.232Z,23.33
2022-12-03T05:16:37.658Z,22.50
2022-12-03T05:19:07.003Z,23.17
2022-12-03T05:21:35.084Z,21.40
2022-12-03T05:24:05.131Z,21.00
2022-12-03T05:26:33.083Z,22.03
2022-12-03T05:29:02.502Z,22.07
2022-12-03T05:31:30.523Z,23.07
2022-12-03T05:33:58.487Z,21.10
2022-12-03T05:36:26.453Z,22.13
2022-12-03T05:38:54.433Z,22.70
2022-12-03T05:41:41.240Z,22.23
2022-12-03T05:44:09.444Z,22.10
2022-12-03T05:46:37.462Z,22.40
2022-12-03T05:49:05.489Z,25.97
2022-12-03T05:51:33.462Z,32.10
2022-12-03T05:54:01.411Z,24.13
2022-12-03T05:56:30.675Z,26.73
2022-12-03T05:58:58.602Z,22.57
2022-12-03T06:01:26.515Z,21.73
2022-12-03T06:03:54.492Z,21.53
2022-12-03T06:06:22.538Z,22.63
2022-12-03T06:08:50.989Z,20.50
2022-12-03T06:11:18.973Z,21.43
2022-12-03T06:13:48.234Z,20.03
2022-12-03T06:16:16.236Z,24.27
2022-12-03T06:18:44.184Z,22.70
2022-12-03T06:21:12.095Z,21.47
2022-12-03T06:23:44.542Z,19.63
2022-12-03T06:26:12.854Z,20.27
2022-12-03T06:28:40.879Z,22.70
2022-12-03T06:31:10.321Z,21.90
2022-12-03T06:33:38.268Z,20.60
2022-12-03T06:36:07.026Z,20.43
2022-12-03T06:38:34.995Z,20.40
2022-12-03T06:41:02.963Z,20.57
2022-12-03T06:43:31.132Z,21.00
2022-12-03T06:45:59.145Z,20.00
2022-12-03T06:48:28.387Z,22.20
2022-12-03T06:50:56.263Z,22.23
2022-12-03T06:53:26.131Z,21.07
2022-12-03T06:55:54.058Z,24.00
2022-12-03T06:58:22.055Z,22.13
2022-12-03T07:00:49.939Z,21.77
2022-12-03T07:03:17.995Z,21.57
2022-12-03T07:05:47.313Z,21.17
2022-12-03T07:08:15.284Z,21.47
2022-12-03T07:10:43.275Z,21.80
2022-12-03T07:13:11.204Z,19.33
2022-12-03T07:15:39.136Z,18.20
2022-12-03T07:18:07.286Z,18.70
2022-12-03T07:20:35.181Z,18.77
2022-12-03T07:23:04.590Z,18.13
2022-12-03T07:25:32.545Z,17.47
2022-12-03T07:28:00.630Z,17.33
2022-12-03T07:30:28.791Z,18.87
2022-12-03T07:32:58.187Z,16.77
2022-12-03T07:35:26.072Z,16.20
2022-12-03T07:37:53.971Z,17.30
2022-12-03T07:40:23.336Z,16.30
2022-12-03T07:42:51.307Z,16.70
2022-12-03T07:45:19.270Z,14.10
2022-12-03T07:47:47.239Z,12.30
2022-12-03T07:50:15.327Z,12.70
2022-12-03T07:52:43.314Z,12.77
2022-12-03T07:55:13.311Z,13.60
2022-12-03T07:57:42.557Z,16.50
2022-12-03T08:00:12.802Z,15.20
2022-12-03T08:02:40.900Z,14.63
2022-12-03T08:05:09.156Z,14.43
2022-12-03T08:07:37.192Z,15.00
2022-12-03T08:10:05.871Z,14.20
2022-12-03T08:12:41.051Z,28.03
2022-12-03T08:15:17.050Z,27.37
2022-12-03T08:17:46.579Z,13.93
2022-12-03T08:20:17.353Z,14.30
2022-12-03T08:22:47.543Z,14.30
2022-12-03T08:25:21.418Z,14.60
2022-12-03T08:27:49.379Z,14.60
2022-12-03T08:30:19.866Z,13.73
2022-12-03T08:32:48.771Z,13.83
2022-12-03T08:35:23.557Z,12.67
2022-12-03T08:37:58.243Z,14.40
2022-12-03T08:40:34.507Z,15.17
2022-12-03T08:43:01.791Z,14.53
2022-12-03T08:45:41.741Z,13.13
2022-12-03T08:48:33.663Z,13.00
2022-12-03T08:51:05.832Z,11.90
2022-12-03T08:53:36.082Z,11.00
2022-12-03T08:56:14.122Z,15.67
2022-12-03T08:58:44.001Z,15.00
2022-12-03T09:01:33.598Z,12.63
2022-12-03T09:04:24.891Z,10.17
2022-12-03T09:06:53.985Z,10.40
2022-12-03T09:09:22.715Z,9.00
2022-12-03T09:11:50.954Z,8.87
2022-12-03T09:14:21.215Z,8.83
2022-12-03T09:16:51.953Z,8.93
2022-12-03T09:19:20.018Z,9.43
2022-12-03T09:21:47.988Z,9.33
2022-12-03T09:24:15.909Z,8.87
2022-12-03T09:26:43.879Z,9.10
2022-12-03T09:29:12.607Z,9.67
2022-12-03T09:31:41.211Z,9.60
2022-12-03T09:34:10.991Z,10.23
2022-12-03T09:36:39.192Z,9.10
2022-12-03T09:39:07.139Z,9.20
2022-12-03T09:41:35.222Z,8.17
2022-12-03T09:44:04.863Z,10.90
2022-12-03T09:46:35.275Z,10.63
2022-12-03T09:49:03.585Z,9.90
2022-12-03T09:51:36.567Z,10.23
2022-12-03T09:54:07.568Z,10.27
2022-12-03T09:56:38.930Z,11.03
2022-12-03T09:59:13.639Z,12.23
2022-12-03T10:01:41.817Z,13.40
2022-12-03T10:04:10.333Z,17.50
2022-12-03T10:06:45.584Z,16.03
2022-12-03T10:09:17.730Z,13.20
2022-12-03T10:11:45.840Z,11.67
2022-12-03T10:14:15.233Z,10.30
2022-12-03T10:16:43.670Z,9.13
2022-12-03T10:19:20.200Z,7.77
2022-12-03T10:21:49.565Z,9.97
2022-12-03T10:24:23.205Z,8.80
2022-12-03T10:26:53.353Z,9.53
2022-12-03T10:29:25.811Z,9.20
2022-12-03T10:31:59.268Z,9.70
2022-12-03T10:34:31.454Z,8.87
2022-12-03T10:37:16.540Z,10.07
2022-12-03T10:39:56.216Z,10.60
2022-12-03T10:42:25.680Z,10.40
2022-12-03T10:45:09.178Z,9.50
2022-12-03T10:47:37.162Z,9.70
2022-12-03T10:50:10.207Z,9.23
2022-12-03T10:52:39.550Z,9.27
2022-12-03T10:55:10.379Z,10.10
2022-12-03T10:57:43.761Z,10.10
2022-12-03T11:00:17.269Z,10.30
2022-12-03T11:02:46.775Z,9.33
2022-12-03T11:05:19.392Z,10.40
2022-12-03T11:07:49.003Z,9.90
2022-12-03T11:10:19.364Z,10.77
2022-12-03T11:13:20.777Z,10.00
2022-12-03T11:15:48.915Z,10.40
2022-12-03T11:18:50.196Z,10.57
2022-12-03T11:21:20.748Z,12.27
2022-12-03T11:24:19.770Z,10.00
2022-12-03T11:27:20.670Z,10.93
2022-12-03T11:30:02.445Z,12.70
2022-12-03T11:33:09.573Z,10.93
2022-12-03T11:36:12.401Z,10.53
2022-12-03T11:38:52.663Z,11.00
2022-12-03T11:41:31.303Z,11.27
2022-12-03T11:44:30.823Z,11.77
2022-12-03T11:47:02.114Z,9.90
2022-12-03T11:49:35.349Z,10.67
2022-12-03T11:52:13.253Z,10.00
2022-12-03T11:54:42.274Z,11.40
2022-12-03T11:57:28.366Z,11.40
2022-12-03T12:00:01.550Z,11.07
2022-12-03T12:02:40.312Z,10.57
2022-12-03T12:05:28.030Z,10.70
2022-12-03T12:07:58.403Z,10.20
2022-12-03T12:10:47.943Z,10.83
2022-12-03T12:13:55.651Z,10.50
2022-12-03T12:16:50.529Z,16.33
2022-12-03T12:19:33.209Z,11.00
2022-12-03T12:22:18.855Z,9.77
2022-12-03T12:24:52.833Z,10.80
2022-12-03T12:27:22.879Z,11.80
2022-12-03T12:29:56.146Z,11.63
2022-12-03T12:32:31.493Z,10.00
2022-12-03T12:35:03.518Z,11.20
2022-12-03T12:37:36.234Z,10.43
2022-12-03T12:40:13.324Z,10.70
2022-12-03T12:42:49.637Z,9.50
2022-12-03T12:45:20.335Z,10.70
2022-12-03T12:48:03.127Z,10.60
2022-12-03T12:50:32.058Z,11.40
2022-12-03T12:53:03.815Z,12.20
2022-12-03T12:55:31.817Z,11.80
2022-12-03T12:58:05.418Z,11.13
2022-12-03T13:00:33.361Z,11.80
2022-12-03T13:03:04.668Z,10.80
2022-12-03T13:05:39.415Z,11.37
2022-12-03T13:08:22.535Z,11.37
2022-12-03T13:10:51.311Z,11.80
2022-12-03T13:13:31.991Z,11.43
2022-12-03T13:16:03.763Z,12.33
2022-12-03T13:18:46.084Z,10.97
2022-12-03T13:21:21.173Z,10.17
2022-12-03T13:23:50.171Z,10.63
2022-12-03T13:29:16.047Z,11.00
2022-12-03T13:31:50.026Z,13.90
2022-12-03T13:34:22.782Z,11.77
2022-12-03T13:36:57.565Z,11.10
2022-12-03T13:39:30.505Z,11.40
2022-12-03T13:42:17.836Z,13.60
2022-12-03T13:44:48.747Z,14.23
2022-12-03T13:47:21.865Z,15.47
2022-12-03T13:49:56.590Z,13.10
2022-12-03T13:52:26.952Z,14.67
2022-12-03T13:54:57.001Z,13.43
2022-12-03T13:57:25.005Z,12.37
2022-12-03T13:59:53.199Z,13.47
2022-12-03T14:02:21.558Z,14.80
2022-12-03T14:04:49.557Z,21.57
2022-12-03T14:07:18.915Z,14.70
2022-12-03T14:09:46.835Z,14.83
2022-12-03T14:12:26.688Z,13.90
2022-12-03T14:14:55.280Z,13.77
2022-12-03T14:17:23.210Z,14.37
2022-12-03T14:19:51.217Z,18.77
2022-12-03T14:22:23.439Z,21.90
2022-12-03T14:24:51.405Z,15.10
2022-12-03T14:27:19.456Z,14.23
2022-12-03T14:29:47.722Z,17.10
2022-12-03T14:32:15.775Z,16.23
2022-12-03T14:34:44.057Z,17.40
2022-12-03T14:37:12.073Z,17.37
2022-12-03T14:39:41.424Z,16.57
2022-12-03T14:42:15.058Z,16.00
2022-12-03T14:44:44.874Z,18.23
2022-12-03T14:47:13.395Z,18.87
2022-12-03T14:49:41.598Z,15.50
2022-12-03T14:52:12.425Z,14.93
2022-12-03T14:54:43.178Z,15.60
2022-12-03T14:57:12.664Z,17.00
2022-12-03T14:59:41.822Z,15.00
2022-12-03T15:02:10.494Z,17.10
2022-12-03T15:04:38.750Z,16.97
2022-12-03T15:07:07.102Z,16.17
2022-12-03T15:09:35.654Z,15.43
2022-12-03T15:12:05.944Z,17.83
2022-12-03T15:14:34.005Z,14.87
2022-12-03T15:17:02.115Z,17.00
2022-12-03T15:19:30.160Z,14.83
2022-12-03T15:21:58.282Z,15.07
2022-12-03T15:24:26.268Z,17.60
2022-12-03T15:26:54.214Z,17.13
2022-12-03T15:29:24.695Z,15.20
2022-12-03T15:31:52.709Z,12.53
2022-12-03T15:34:22.783Z,11.77
2022-12-03T15:36:51.455Z,11.10
2022-12-03T15:39:19.411Z,11.43
2022-12-03T15:41:48.214Z,10.73
2022-12-03T15:44:16.269Z,10.10
2022-12-03T15:46:45.671Z,10.10
2022-12-03T15:49:13.660Z,10.33
2022-12-03T15:51:41.649Z,11.40
2022-12-03T15:54:12.097Z,11.27
2022-12-03T15:56:40.077Z,10.13
2022-12-03T15:59:07.948Z,11.03
2022-12-03T16:01:35.958Z,10.77
2022-12-03T16:04:05.556Z,11.27
2022-12-03T16:06:33.951Z,10.97
2022-12-03T16:09:02.011Z,12.13
2022-12-03T16:11:30.098Z,11.60
2022-12-03T16:13:58.151Z,9.60
2022-12-03T16:16:26.475Z,10.80
2022-12-03T16:18:54.849Z,10.07
2022-12-03T16:21:27.038Z,10.73
2022-12-03T16:23:55.909Z,11.00
2022-12-03T16:26:24.512Z,10.20
2022-12-03T16:28:53.178Z,11.83
2022-12-03T16:31:21.647Z,11.17
2022-12-03T16:33:49.972Z,11.17
2022-12-03T16:36:18.248Z,10.90
2022-12-03T16:38:47.930Z,10.73
2022-12-03T16:41:16.017Z,11.03
2022-12-03T16:43:47.232Z,11.37
2022-12-03T16:46:25.783Z,11.13
2022-12-03T16:48:55.340Z,12.03
2022-12-03T16:51:27.145Z,11.13
2022-12-03T16:53:56.845Z,11.10
2022-12-03T16:56:25.131Z,10.97
2022-12-03T16:58:53.263Z,10.67
2022-12-03T17:01:23.449Z,10.40
2022-12-03T17:03:51.642Z,10.20
2022-12-03T17:06:20.559Z,10.80
2022-12-03T17:08:49.842Z,11.40
2022-12-03T17:11:19.946Z,10.57
2022-12-03T17:13:48.185Z,10.23
2022-12-03T17:16:16.138Z,10.57
2022-12-03T17:18:44.153Z,13.57
2022-12-03T17:21:12.120Z,16.07
2022-12-03T17:23:40.089Z,11.70
2022-12-03T17:26:08.097Z,12.20
2022-12-03T17:28:37.492Z,11.20
2022-12-03T17:31:05.649Z,10.80
2022-12-03T17:33:34.031Z,11.63
2022-12-03T17:36:02.657Z,12.30
2022-12-03T17:38:35.614Z,11.63
2022-12-03T17:41:07.361Z,12.83
2022-12-03T17:43:35.300Z,12.37
2022-12-03T17:46:06.553Z,11.70
2022-12-03T17:48:50.185Z,12.23
2022-12-03T17:51:19.314Z,11.80
2022-12-03T17:53:47.489Z,10.60
2022-12-03T17:56:15.406Z,11.80
2022-12-03T17:58:43.375Z,11.67
2022-12-03T18:01:12.864Z,11.00
2022-12-03T18:03:40.880Z,12.33
2022-12-03T18:06:09.271Z,11.07
2022-12-03T18:08:37.164Z,12.90
2022-12-03T18:11:05.450Z,10.93
2022-12-03T18:13:33.453Z,11.43
2022-12-03T18:16:01.547Z,9.53
2022-12-03T18:18:30.903Z,10.83
2022-12-03T18:21:02.036Z,10.07
2022-12-03T18:23:30.077Z,11.30
2022-12-03T18:25:58.418Z,12.93
2022-12-03T18:28:26.453Z,12.30
2022-12-03T18:30:54.891Z,12.43
2022-12-03T18:33:23.535Z,12.73
2022-12-03T18:35:56.844Z,13.33
2022-12-03T18:38:29.673Z,13.03
2022-12-03T18:40:58.783Z,10.50
2022-12-03T18:43:28.040Z,15.57
2022-12-03T18:45:56.060Z,15.40
2022-12-03T18:48:24.053Z,14.50
2022-12-03T18:50:51.989Z,13.10
2022-12-03T18:53:21.587Z,15.13
2022-12-03T18:55:49.895Z,13.03
2022-12-03T18:58:19.315Z,15.00
2022-12-03T19:00:47.468Z,15.40
2022-12-03T19:03:15.698Z,15.30
2022-12-03T19:05:44.411Z,15.80
2022-12-03T19:08:15.255Z,16.30
2022-12-03T19:10:45.012Z,16.20
2022-12-03T19:13:13.490Z,14.80
2022-12-03T19:15:42.392Z,17.20
2022-12-03T19:18:10.314Z,15.90
2022-12-03T19:20:41.817Z,14.37
2022-12-03T19:23:10.575Z,15.83
2022-12-03T19:25:38.928Z,16.97
2022-12-03T19:28:09.037Z,15.70
2022-12-03T19:30:37.735Z,14.80
2022-12-03T19:33:05.776Z,15.60
2022-12-03T19:35:33.727Z,17.40
2022-12-03T19:38:01.781Z,15.93
2022-12-03T19:40:32.102Z,15.13
2022-12-03T19:43:01.400Z,14.73
2022-12-03T19:45:30.891Z,14.37
2022-12-03T19:48:00.380Z,14.87
2022-12-03T19:50:28.878Z,15.53
2022-12-03T19:52:57.260Z,14.53
2022-12-03T19:55:25.281Z,14.57
2022-12-03T19:57:53.694Z,13.63
2022-12-03T20:00:22.637Z,13.50
2022-12-03T20:02:52.042Z,14.23
2022-12-03T20:05:20.069Z,14.30
2022-12-03T20:07:48.103Z,14.20
2022-12-03T20:10:16.221Z,12.27
2022-12-03T20:12:44.149Z,13.33
2022-12-03T20:15:13.594Z,10.70
2022-12-03T20:17:41.493Z,12.37
2022-12-03T20:20:11.977Z,11.27
2022-12-03T20:22:39.963Z,9.60
2022-12-03T20:25:08.793Z,10.30
2022-12-03T20:27:37.424Z,9.03
2022-12-03T20:30:06.857Z,9.77
2022-12-03T20:32:40.551Z,9.30
2022-12-03T20:35:13.019Z,9.10
2022-12-03T20:37:40.950Z,9.10
2022-12-03T20:40:10.046Z,11.00
2022-12-03T20:42:37.982Z,10.23
2022-12-03T20:45:07.150Z,10.20
2022-12-03T20:47:35.100Z,12.60
2022-12-03T20:50:03.086Z,12.50
2022-12-03T20:52:32.366Z,13.27
2022-12-03T20:55:00.694Z,12.33
2022-12-03T20:57:28.855Z,15.57
2022-12-03T20:59:56.959Z,15.80
2022-12-03T21:02:24.962Z,14.10
2022-12-03T21:04:54.359Z,12.63
2022-12-03T21:07:22.244Z,13.50
2022-12-03T21:09:51.876Z,12.33
2022-12-03T21:12:19.988Z,12.53
2022-12-03T21:14:48.242Z,22.77
2022-12-03T21:17:16.219Z,13.57
2022-12-03T21:19:44.252Z,11.87
2022-12-03T21:22:12.244Z,13.33
2022-12-03T21:24:42.691Z,12.87
2022-12-03T21:27:14.597Z,12.73
2022-12-03T21:29:46.351Z,12.30
2022-12-03T21:32:14.339Z,11.30
2022-12-03T21:34:42.893Z,13.50
2022-12-03T21:37:10.895Z,12.30
2022-12-03T21:39:38.939Z,11.90
2022-12-03T21:42:25.971Z,12.37
2022-12-03T21:44:56.202Z,13.13
2022-12-03T21:47:24.153Z,13.57
2022-12-03T21:49:52.227Z,11.70
2022-12-03T21:52:20.356Z,13.20
2022-12-03T21:54:48.286Z,13.90
2022-12-03T21:57:16.278Z,12.83
2022-12-03T21:59:44.224Z,13.60
2022-12-03T22:02:13.785Z,13.30
2022-12-03T22:04:41.799Z,14.53
2022-12-03T22:07:09.971Z,14.37
2022-12-03T22:09:38.381Z,13.23
2022-12-03T22:12:06.994Z,13.27
2022-12-03T22:14:34.917Z,12.13
2022-12-03T22:17:02.969Z,13.80
2022-12-03T22:19:32.571Z,12.60
2022-12-03T22:22:00.480Z,11.83
2022-12-03T22:24:28.493Z,12.70
2022-12-03T22:26:56.520Z,11.77
2022-12-03T22:29:24.490Z,11.90
2022-12-03T22:31:52.636Z,13.47
2022-12-03T22:34:20.565Z,12.60
2022-12-03T22:36:49.931Z,13.27
2022-12-03T22:39:17.971Z,12.33
2022-12-03T22:41:45.950Z,11.97
2022-12-03T22:44:14.349Z,11.70
2022-12-03T22:46:42.409Z,11.30
2022-12-03T22:49:10.410Z,12.93
2022-12-03T22:51:38.345Z,11.80
2022-12-03T22:54:07.682Z,11.27
2022-12-03T22:56:36.067Z,11.50
2022-12-03T22:59:04.142Z,10.77
2022-12-03T23:01:34.367Z,10.37
2022-12-03T23:04:03.613Z,9.47
2022-12-03T23:06:32.767Z,10.47
2022-12-03T23:09:00.739Z,10.20
2022-12-03T23:11:30.126Z,10.20
2022-12-03T23:13:58.933Z,10.90
2022-12-03T23:16:29.710Z,10.80
2022-12-03T23:18:59.522Z,11.00
2022-12-03T23:21:30.697Z,10.60
2022-12-03T23:23:59.637Z,10.87
2022-12-03T23:26:27.946Z,8.37
2022-12-03T23:28:57.624Z,10.60
2022-12-03T23:31:27.375Z,9.50
2022-12-03T23:33:56.523Z,9.40
2022-12-03T23:36:26.234Z,11.10
2022-12-03T23:38:54.891Z,10.50
2022-12-03T23:41:24.528Z,9.20
2022-12-03T23:43:52.687Z,9.37
2022-12-03T23:46:24.475Z,7.90
2022-12-03T23:48:53.282Z,8.80
2022-12-03T23:51:24.246Z,8.63
2022-12-03T23:53:53.330Z,8.07
2022-12-03T23:56:23.243Z,8.13
2022-12-03T23:58:51.622Z,8.90
